sensor_id;sensor_type;location;lat;lon;timestamp;temperature;humidity
46364;DHT22;32071;49.036;9.344;2023-10-08T00:02:24;12.00;99.90
46364;DHT22;32071;49.036;9.344;2023-10-08T00:04:53;12.00;99.90
46364;DHT22;32071;49.036;9.344;2023-10-08T00:07:23;12.00;99.90
46364;DHT22;32071;49.036;9.344;2023-10-08T00:09:53;12.00;99.90
46364;DHT22;32071;49.036;9.344;2023-10-08T00:12:19;12.00;99.90
46364;DHT22;32071;49.036;9.344;2023-10-08T00:14:45;12.00;99.90
46364;DHT22;32071;49.036;9.344;2023-10-08T00:17:15;12.00;99.90
46364;DHT22;32071;49.036;9.344;2023-10-08T00:19:41;12.00;99.90
46364;DHT22;32071;49.036;9.344;2023-10-08T00:22:09;11.90;99.90
46364;DHT22;32071;49.036;9.344;2023-10-08T00:24:36;11.80;99.90
46364;DHT22;32071;49.036;9.344;2023-10-08T00:27:06;11.80;99.90
46364;DHT22;32071;49.036;9.344;2023-10-08T00:29:32;11.70;99.90
46364;DHT22;32071;49.036;9.344;2023-10-08T00:31:58;11.70;99.90
46364;DHT22;32071;49.036;9.344;2023-10-08T00:34:24;11.70;99.90
46364;DHT22;32071;49.036;9.344;2023-10-08T00:36:50;11.70;99.90
46364;DHT22;32071;49.036;9.344;2023-10-08T00:39:17;11.70;99.90
46364;DHT22;32071;49.036;9.344;2023-10-08T00:41:51;11.60;99.90
46364;DHT22;32071;49.036;9.344;2023-10-08T00:44:23;11.60;99.90
46364;DHT22;32071;49.036;9.344;2023-10-08T00:46:59;11.60;99.90
46364;DHT22;32071;49.036;9.344;2023-10-08T00:49:32;11.60;99.90
46364;DHT22;32071;49.036;9.344;2023-10-08T00:52:11;11.50;99.90
46364;DHT22;32071;49.036;9.344;2023-10-08T00:54:38;11.50;99.90
46364;DHT22;32071;49.036;9.344;2023-10-08T00:57:26;11.50;99.90
46364;DHT22;32071;49.036;9.344;2023-10-08T00:59:53;11.50;99.90
46364;DHT22;32071;49.036;9.344;2023-10-08T01:02:25;11.40;99.90
46364;DHT22;32071;49.036;9.344;2023-10-08T01:04:53;11.40;99.90
46364;DHT22;32071;49.036;9.344;2023-10-08T01:07:20;11.40;99.90
46364;DHT22;32071;49.036;9.344;2023-10-08T01:09:46;11.40;99.90
46364;DHT22;32071;49.036;9.344;2023-10-08T01:12:38;11.30;99.90
46364;DHT22;32071;49.036;9.344;2023-10-08T01:15:15;11.40;99.90
46364;DHT22;32071;49.036;9.344;2023-10-08T01:17:49;11.40;99.90
46364;DHT22;32071;49.036;9.344;2023-10-08T01:20:23;11.40;99.90
46364;DHT22;32071;49.036;9.344;2023-10-08T01:23:08;11.40;99.90
46364;DHT22;32071;49.036;9.344;2023-10-08T01:25:42;11.50;99.90
46364;DHT22;32071;49.036;9.344;2023-10-08T01:28:09;11.50;99.90
46364;DHT22;32071;49.036;9.344;2023-10-08T01:30:43;11.50;99.90
46364;DHT22;32071;49.036;9.344;2023-10-08T01:33:13;11.50;99.90
46364;DHT22;32071;49.036;9.344;2023-10-08T01:35:46;11.40;99.90
46364;DHT22;32071;49.036;9.344;2023-10-08T01:38:14;11.40;99.90
46364;DHT22;32071;49.036;9.344;2023-10-08T01:40:42;11.40;99.90
46364;DHT22;32071;49.036;9.344;2023-10-08T01:43:09;11.40;99.90
46364;DHT22;32071;49.036;9.344;2023-10-08T01:45:37;11.30;99.90
46364;DHT22;32071;49.036;9.344;2023-10-08T01:48:06;11.30;99.90
46364;DHT22;32071;49.036;9.344;2023-10-08T01:50:35;11.30;99.90
46364;DHT22;32071;49.036;9.344;2023-10-08T01:53:00;11.20;99.90
46364;DHT22;32071;49.036;9.344;2023-10-08T01:55:26;11.20;99.90
46364;DHT22;32071;49.036;9.344;2023-10-08T01:57:52;11.20;99.90
46364;DHT22;32071;49.036;9.344;2023-10-08T02:00:18;11.20;99.90
46364;DHT22;32071;49.036;9.344;2023-10-08T02:02:51;11.20;99.90
46364;DHT22;32071;49.036;9.344;2023-10-08T02:05:17;11.10;99.90
46364;DHT22;32071;49.036;9.344;2023-10-08T02:07:45;11.10;99.90
46364;DHT22;32071;49.036;9.344;2023-10-08T02:10:11;11.10;99.90
46364;DHT22;32071;49.036;9.344;2023-10-08T02:12:42;11.00;99.90
46364;DHT22;32071;49.036;9.344;2023-10-08T02:15:09;11.00;99.90
46364;DHT22;32071;49.036;9.344;2023-10-08T02:17:37;11.00;99.90
46364;DHT22;32071;49.036;9.344;2023-10-08T02:20:03;11.00;99.90
46364;DHT22;32071;49.036;9.344;2023-10-08T02:22:31;11.00;99.90
46364;DHT22;32071;49.036;9.344;2023-10-08T02:24:58;11.00;99.90
46364;DHT22;32071;49.036;9.344;2023-10-08T02:27:27;10.90;99.90
46364;DHT22;32071;49.036;9.344;2023-10-08T02:29:53;10.90;99.90
46364;DHT22;32071;49.036;9.344;2023-10-08T02:32:19;10.80;99.90
46364;DHT22;32071;49.036;9.344;2023-10-08T02:34:48;10.80;99.90
46364;DHT22;32071;49.036;9.344;2023-10-08T02:37:13;10.80;99.90
46364;DHT22;32071;49.036;9.344;2023-10-08T02:39:40;10.80;99.90
46364;DHT22;32071;49.036;9.344;2023-10-08T02:42:06;10.80;99.90
46364;DHT22;32071;49.036;9.344;2023-10-08T02:44:37;10.80;99.90
46364;DHT22;32071;49.036;9.344;2023-10-08T02:47:10;10.80;99.90
46364;DHT22;32071;49.036;9.344;2023-10-08T02:49:42;10.70;99.90
46364;DHT22;32071;49.036;9.344;2023-10-08T02:52:08;10.70;99.90
46364;DHT22;32071;49.036;9.344;2023-10-08T02:54:38;10.70;99.90
46364;DHT22;32071;49.036;9.344;2023-10-08T02:57:04;10.60;99.90
46364;DHT22;32071;49.036;9.344;2023-10-08T02:59:31;10.60;99.90
46364;DHT22;32071;49.036;9.344;2023-10-08T03:02:06;10.60;99.90
46364;DHT22;32071;49.036;9.344;2023-10-08T03:04:42;10.60;99.90
46364;DHT22;32071;49.036;9.344;2023-10-08T03:07:13;10.50;99.90
46364;DHT22;32071;49.036;9.344;2023-10-08T03:09:47;10.50;99.90
46364;DHT22;32071;49.036;9.344;2023-10-08T03:12:15;10.50;99.90
46364;DHT22;32071;49.036;9.344;2023-10-08T03:14:42;10.50;99.90
46364;DHT22;32071;49.036;9.344;2023-10-08T03:17:15;10.40;99.90
46364;DHT22;32071;49.036;9.344;2023-10-08T03:19:46;10.40;99.90
46364;DHT22;32071;49.036;9.344;2023-10-08T03:22:12;10.40;99.90
46364;DHT22;32071;49.036;9.344;2023-10-08T03:24:38;10.40;99.90
46364;DHT22;32071;49.036;9.344;2023-10-08T03:27:05;10.40;99.90
46364;DHT22;32071;49.036;9.344;2023-10-08T03:29:46;10.40;99.90
46364;DHT22;32071;49.036;9.344;2023-10-08T03:32:13;10.40;99.90
46364;DHT22;32071;49.036;9.344;2023-10-08T03:34:48;10.40;99.90
46364;DHT22;32071;49.036;9.344;2023-10-08T03:37:18;10.30;99.90
46364;DHT22;32071;49.036;9.344;2023-10-08T03:39:51;10.30;99.90
46364;DHT22;32071;49.036;9.344;2023-10-08T03:42:23;10.30;99.90
46364;DHT22;32071;49.036;9.344;2023-10-08T03:44:52;10.30;99.90
46364;DHT22;32071;49.036;9.344;2023-10-08T03:47:18;10.30;99.90
46364;DHT22;32071;49.036;9.344;2023-10-08T03:49:48;10.30;99.90
46364;DHT22;32071;49.036;9.344;2023-10-08T03:52:16;10.30;99.90
46364;DHT22;32071;49.036;9.344;2023-10-08T03:54:42;10.30;99.90
46364;DHT22;32071;49.036;9.344;2023-10-08T03:57:14;10.30;99.90
46364;DHT22;32071;49.036;9.344;2023-10-08T03:59:44;10.30;99.90
46364;DHT22;32071;49.036;9.344;2023-10-08T04:02:14;10.30;99.90
46364;DHT22;32071;49.036;9.344;2023-10-08T04:04:41;10.30;99.90
46364;DHT22;32071;49.036;9.344;2023-10-08T04:07:19;10.20;99.90
46364;DHT22;32071;49.036;9.344;2023-10-08T04:09:57;10.20;99.90
46364;DHT22;32071;49.036;9.344;2023-10-08T04:12:35;10.20;99.90
46364;DHT22;32071;49.036;9.344;2023-10-08T04:15:06;10.30;99.90
46364;DHT22;32071;49.036;9.344;2023-10-08T04:17:38;10.30;99.90
46364;DHT22;32071;49.036;9.344;2023-10-08T04:20:17;10.30;99.90
46364;DHT22;32071;49.036;9.344;2023-10-08T04:23:02;10.30;99.90
46364;DHT22;32071;49.036;9.344;2023-10-08T04:25:31;10.30;99.90
46364;DHT22;32071;49.036;9.344;2023-10-08T04:28:00;10.30;99.90
46364;DHT22;32071;49.036;9.344;2023-10-08T04:30:33;10.30;99.90
46364;DHT22;32071;49.036;9.344;2023-10-08T04:33:00;10.30;99.90
46364;DHT22;32071;49.036;9.344;2023-10-08T04:35:35;10.30;99.90
46364;DHT22;32071;49.036;9.344;2023-10-08T04:38:15;10.30;99.90
46364;DHT22;32071;49.036;9.344;2023-10-08T04:40:44;10.30;99.90
46364;DHT22;32071;49.036;9.344;2023-10-08T04:43:23;10.30;99.90
46364;DHT22;32071;49.036;9.344;2023-10-08T04:45:56;10.30;99.90
46364;DHT22;32071;49.036;9.344;2023-10-08T04:48:28;10.20;99.90
46364;DHT22;32071;49.036;9.344;2023-10-08T04:50:58;10.20;99.90
46364;DHT22;32071;49.036;9.344;2023-10-08T04:55:57;10.20;99.90
46364;DHT22;32071;49.036;9.344;2023-10-08T04:58:25;10.20;99.90
46364;DHT22;32071;49.036;9.344;2023-10-08T05:01:02;10.30;99.90
46364;DHT22;32071;49.036;9.344;2023-10-08T05:03:50;10.30;99.90
46364;DHT22;32071;49.036;9.344;2023-10-08T05:06:26;10.30;99.90
46364;DHT22;32071;49.036;9.344;2023-10-08T05:09:09;10.30;99.90
46364;DHT22;32071;49.036;9.344;2023-10-08T05:11:53;10.30;99.90
46364;DHT22;32071;49.036;9.344;2023-10-08T05:14:36;10.30;99.90
46364;DHT22;32071;49.036;9.344;2023-10-08T05:17:11;10.20;99.90
46364;DHT22;32071;49.036;9.344;2023-10-08T05:19:48;10.20;99.90
46364;DHT22;32071;49.036;9.344;2023-10-08T05:22:26;10.20;99.90
46364;DHT22;32071;49.036;9.344;2023-10-08T05:24:57;10.20;99.90
46364;DHT22;32071;49.036;9.344;2023-10-08T05:27:43;10.20;99.90
46364;DHT22;32071;49.036;9.344;2023-10-08T05:30:19;10.20;99.90
46364;DHT22;32071;49.036;9.344;2023-10-08T05:32:57;10.20;99.90
46364;DHT22;32071;49.036;9.344;2023-10-08T05:35:35;10.20;99.90
46364;DHT22;32071;49.036;9.344;2023-10-08T05:38:18;10.10;99.90
46364;DHT22;32071;49.036;9.344;2023-10-08T05:40:57;10.10;99.90
46364;DHT22;32071;49.036;9.344;2023-10-08T05:43:38;10.10;99.90
46364;DHT22;32071;49.036;9.344;2023-10-08T05:46:11;10.10;99.90
46364;DHT22;32071;49.036;9.344;2023-10-08T05:49:00;10.20;99.90
46364;DHT22;32071;49.036;9.344;2023-10-08T05:51:32;10.20;99.90
46364;DHT22;32071;49.036;9.344;2023-10-08T05:54:18;10.30;99.90
46364;DHT22;32071;49.036;9.344;2023-10-08T05:57:07;10.30;99.90
46364;DHT22;32071;49.036;9.344;2023-10-08T05:59:50;10.30;99.90
46364;DHT22;32071;49.036;9.344;2023-10-08T06:02:26;10.30;99.90
46364;DHT22;32071;49.036;9.344;2023-10-08T06:05:14;10.30;99.90
46364;DHT22;32071;49.036;9.344;2023-10-08T06:07:53;10.40;99.90
46364;DHT22;32071;49.036;9.344;2023-10-08T06:10:39;10.40;99.90
46364;DHT22;32071;49.036;9.344;2023-10-08T06:13:12;10.50;99.90
46364;DHT22;32071;49.036;9.344;2023-10-08T06:15:46;10.50;99.90
46364;DHT22;32071;49.036;9.344;2023-10-08T06:18:26;10.60;99.90
46364;DHT22;32071;49.036;9.344;2023-10-08T06:20:53;10.70;99.90
46364;DHT22;32071;49.036;9.344;2023-10-08T06:23:26;10.80;99.90
46364;DHT22;32071;49.036;9.344;2023-10-08T06:25:54;10.90;99.90
46364;DHT22;32071;49.036;9.344;2023-10-08T06:28:23;11.00;99.90
46364;DHT22;32071;49.036;9.344;2023-10-08T06:30:53;11.10;99.90
46364;DHT22;32071;49.036;9.344;2023-10-08T06:33:19;11.20;99.90
46364;DHT22;32071;49.036;9.344;2023-10-08T06:35:46;11.20;99.90
46364;DHT22;32071;49.036;9.344;2023-10-08T06:38:30;11.30;99.90
46364;DHT22;32071;49.036;9.344;2023-10-08T06:41:02;11.30;99.90
46364;DHT22;32071;49.036;9.344;2023-10-08T06:43:35;11.40;99.90
46364;DHT22;32071;49.036;9.344;2023-10-08T06:46:05;11.50;99.90
46364;DHT22;32071;49.036;9.344;2023-10-08T06:48:38;11.60;99.90
46364;DHT22;32071;49.036;9.344;2023-10-08T06:51:08;11.70;99.90
46364;DHT22;32071;49.036;9.344;2023-10-08T06:53:39;11.70;99.90
46364;DHT22;32071;49.036;9.344;2023-10-08T06:56:05;11.80;99.90
46364;DHT22;32071;49.036;9.344;2023-10-08T06:58:31;11.90;99.90
46364;DHT22;32071;49.036;9.344;2023-10-08T07:01:00;11.90;99.90
46364;DHT22;32071;49.036;9.344;2023-10-08T07:03:30;12.00;99.90
46364;DHT22;32071;49.036;9.344;2023-10-08T07:05:57;12.10;99.90
46364;DHT22;32071;49.036;9.344;2023-10-08T07:08:25;12.20;99.90
46364;DHT22;32071;49.036;9.344;2023-10-08T07:10:54;12.40;99.90
46364;DHT22;32071;49.036;9.344;2023-10-08T07:13:22;12.60;99.90
46364;DHT22;32071;49.036;9.344;2023-10-08T07:15:52;12.80;99.90
46364;DHT22;32071;49.036;9.344;2023-10-08T07:18:18;12.90;99.90
46364;DHT22;32071;49.036;9.344;2023-10-08T07:20:51;13.00;99.90
46364;DHT22;32071;49.036;9.344;2023-10-08T07:23:24;13.10;99.90
46364;DHT22;32071;49.036;9.344;2023-10-08T07:26:02;13.30;99.90
46364;DHT22;32071;49.036;9.344;2023-10-08T07:28:41;13.40;99.90
46364;DHT22;32071;49.036;9.344;2023-10-08T07:31:17;13.50;99.90
46364;DHT22;32071;49.036;9.344;2023-10-08T07:33:47;13.60;99.90
46364;DHT22;32071;49.036;9.344;2023-10-08T07:36:13;13.70;99.90
46364;DHT22;32071;49.036;9.344;2023-10-08T07:38:46;13.80;99.90
46364;DHT22;32071;49.036;9.344;2023-10-08T07:41:13;13.80;99.90
46364;DHT22;32071;49.036;9.344;2023-10-08T07:43:40;13.80;99.90
46364;DHT22;32071;49.036;9.344;2023-10-08T07:46:07;13.70;99.90
46364;DHT22;32071;49.036;9.344;2023-10-08T07:48:33;13.70;99.90
46364;DHT22;32071;49.036;9.344;2023-10-08T07:50:58;13.70;99.90
46364;DHT22;32071;49.036;9.344;2023-10-08T07:53:25;13.80;99.90
46364;DHT22;32071;49.036;9.344;2023-10-08T07:55:51;13.90;99.90
46364;DHT22;32071;49.036;9.344;2023-10-08T07:58:18;13.90;99.90
46364;DHT22;32071;49.036;9.344;2023-10-08T08:00:44;14.00;99.90
46364;DHT22;32071;49.036;9.344;2023-10-08T08:03:22;14.00;99.90
46364;DHT22;32071;49.036;9.344;2023-10-08T08:05:47;14.10;99.90
46364;DHT22;32071;49.036;9.344;2023-10-08T08:08:14;14.20;99.90
46364;DHT22;32071;49.036;9.344;2023-10-08T08:10:44;14.20;99.90
46364;DHT22;32071;49.036;9.344;2023-10-08T08:13:09;14.30;99.90
46364;DHT22;32071;49.036;9.344;2023-10-08T08:15:36;14.40;99.90
46364;DHT22;32071;49.036;9.344;2023-10-08T08:18:07;14.40;99.90
46364;DHT22;32071;49.036;9.344;2023-10-08T08:20:34;14.50;99.90
46364;DHT22;32071;49.036;9.344;2023-10-08T08:23:05;14.70;99.90
46364;DHT22;32071;49.036;9.344;2023-10-08T08:25:38;14.80;99.90
46364;DHT22;32071;49.036;9.344;2023-10-08T08:28:13;14.90;99.90
46364;DHT22;32071;49.036;9.344;2023-10-08T08:30:43;15.00;99.90
46364;DHT22;32071;49.036;9.344;2023-10-08T08:33:12;15.10;99.90
46364;DHT22;32071;49.036;9.344;2023-10-08T08:35:38;15.20;99.90
46364;DHT22;32071;49.036;9.344;2023-10-08T08:38:04;15.40;99.90
46364;DHT22;32071;49.036;9.344;2023-10-08T08:40:31;15.60;99.90
46364;DHT22;32071;49.036;9.344;2023-10-08T08:42:59;15.70;99.90
46364;DHT22;32071;49.036;9.344;2023-10-08T08:45:27;15.80;99.90
46364;DHT22;32071;49.036;9.344;2023-10-08T08:47:58;15.90;99.90
46364;DHT22;32071;49.036;9.344;2023-10-08T08:50:25;16.10;99.90
46364;DHT22;32071;49.036;9.344;2023-10-08T08:52:52;16.30;99.90
46364;DHT22;32071;49.036;9.344;2023-10-08T08:55:18;16.40;99.90
46364;DHT22;32071;49.036;9.344;2023-10-08T08:57:49;16.50;99.90
46364;DHT22;32071;49.036;9.344;2023-10-08T09:00:17;16.70;99.90
46364;DHT22;32071;49.036;9.344;2023-10-08T09:02:44;16.80;99.90
46364;DHT22;32071;49.036;9.344;2023-10-08T09:05:12;17.00;99.90
46364;DHT22;32071;49.036;9.344;2023-10-08T09:10:22;17.50;99.90
46364;DHT22;32071;49.036;9.344;2023-10-08T09:12:55;17.70;99.90
46364;DHT22;32071;49.036;9.344;2023-10-08T09:15:25;17.90;99.90
46364;DHT22;32071;49.036;9.344;2023-10-08T09:17:55;18.10;99.90
46364;DHT22;32071;49.036;9.344;2023-10-08T09:20:21;18.20;99.90
46364;DHT22;32071;49.036;9.344;2023-10-08T09:23:08;18.30;99.90
46364;DHT22;32071;49.036;9.344;2023-10-08T09:25:37;18.50;99.90
46364;DHT22;32071;49.036;9.344;2023-10-08T09:28:03;18.60;99.90
46364;DHT22;32071;49.036;9.344;2023-10-08T09:30:35;18.70;99.90
46364;DHT22;32071;49.036;9.344;2023-10-08T09:33:11;18.80;99.90
46364;DHT22;32071;49.036;9.344;2023-10-08T09:35:37;18.80;99.90
46364;DHT22;32071;49.036;9.344;2023-10-08T09:38:05;18.90;99.90
46364;DHT22;32071;49.036;9.344;2023-10-08T09:40:31;19.00;99.90
46364;DHT22;32071;49.036;9.344;2023-10-08T09:42:56;19.20;99.90
46364;DHT22;32071;49.036;9.344;2023-10-08T09:45:24;19.30;99.90
46364;DHT22;32071;49.036;9.344;2023-10-08T09:47:54;19.30;99.90
46364;DHT22;32071;49.036;9.344;2023-10-08T09:50:31;19.40;99.90
46364;DHT22;32071;49.036;9.344;2023-10-08T09:53:09;19.60;99.90
46364;DHT22;32071;49.036;9.344;2023-10-08T09:55:56;19.60;99.90
46364;DHT22;32071;49.036;9.344;2023-10-08T09:58:30;19.70;99.90
46364;DHT22;32071;49.036;9.344;2023-10-08T10:00:57;19.70;99.90
46364;DHT22;32071;49.036;9.344;2023-10-08T10:03:27;19.90;99.90
46364;DHT22;32071;49.036;9.344;2023-10-08T10:05:53;19.90;99.90
46364;DHT22;32071;49.036;9.344;2023-10-08T10:08:24;19.90;99.90
46364;DHT22;32071;49.036;9.344;2023-10-08T10:10:58;20.00;99.90
46364;DHT22;32071;49.036;9.344;2023-10-08T10:13:27;20.20;99.90
46364;DHT22;32071;49.036;9.344;2023-10-08T10:15:54;20.30;99.90
46364;DHT22;32071;49.036;9.344;2023-10-08T10:23:49;20.20;99.90
46364;DHT22;32071;49.036;9.344;2023-10-08T10:26:31;20.20;99.90
46364;DHT22;32071;49.036;9.344;2023-10-08T10:31:43;20.40;99.90
46364;DHT22;32071;49.036;9.344;2023-10-08T10:34:11;20.50;99.90
46364;DHT22;32071;49.036;9.344;2023-10-08T10:36:39;20.50;99.90
46364;DHT22;32071;49.036;9.344;2023-10-08T10:39:09;20.50;99.90
46364;DHT22;32071;49.036;9.344;2023-10-08T10:41:46;20.50;99.90
46364;DHT22;32071;49.036;9.344;2023-10-08T10:44:15;20.60;99.90
46364;DHT22;32071;49.036;9.344;2023-10-08T10:46:45;20.70;99.90
46364;DHT22;32071;49.036;9.344;2023-10-08T10:49:19;20.90;99.90
46364;DHT22;32071;49.036;9.344;2023-10-08T10:51:55;21.10;99.90
46364;DHT22;32071;49.036;9.344;2023-10-08T10:54:23;21.40;99.90
46364;DHT22;32071;49.036;9.344;2023-10-08T10:56:52;21.60;99.90
46364;DHT22;32071;49.036;9.344;2023-10-08T10:59:43;21.80;99.90
46364;DHT22;32071;49.036;9.344;2023-10-08T11:02:19;21.70;99.90
46364;DHT22;32071;49.036;9.344;2023-10-08T11:04:56;21.60;99.90
46364;DHT22;32071;49.036;9.344;2023-10-08T11:07:32;21.50;99.90
46364;DHT22;32071;49.036;9.344;2023-10-08T11:09:59;21.40;99.90
46364;DHT22;32071;49.036;9.344;2023-10-08T11:12:25;21.50;99.90
46364;DHT22;32071;49.036;9.344;2023-10-08T11:15:11;21.60;99.90
46364;DHT22;32071;49.036;9.344;2023-10-08T11:17:41;21.50;99.90
46364;DHT22;32071;49.036;9.344;2023-10-08T11:20:27;21.50;99.90
46364;DHT22;32071;49.036;9.344;2023-10-08T11:22:53;21.40;99.90
46364;DHT22;32071;49.036;9.344;2023-10-08T11:25:31;21.30;99.90
46364;DHT22;32071;49.036;9.344;2023-10-08T11:27:57;21.20;99.90
46364;DHT22;32071;49.036;9.344;2023-10-08T11:30:34;21.00;99.90
46364;DHT22;32071;49.036;9.344;2023-10-08T11:33:01;20.90;99.90
46364;DHT22;32071;49.036;9.344;2023-10-08T11:35:26;20.80;99.90
46364;DHT22;32071;49.036;9.344;2023-10-08T11:37:59;20.70;99.90
46364;DHT22;32071;49.036;9.344;2023-10-08T11:40:27;20.70;99.90
46364;DHT22;32071;49.036;9.344;2023-10-08T11:43:12;20.80;99.90
46364;DHT22;32071;49.036;9.344;2023-10-08T11:45:41;21.00;99.90
46364;DHT22;32071;49.036;9.344;2023-10-08T11:48:13;21.30;99.90
46364;DHT22;32071;49.036;9.344;2023-10-08T11:50:39;21.50;99.90
46364;DHT22;32071;49.036;9.344;2023-10-08T11:53:05;21.80;99.90
46364;DHT22;32071;49.036;9.344;2023-10-08T11:55:35;22.00;99.90
46364;DHT22;32071;49.036;9.344;2023-10-08T11:58:03;22.20;99.90
46364;DHT22;32071;49.036;9.344;2023-10-08T12:00:44;22.30;99.90
46364;DHT22;32071;49.036;9.344;2023-10-08T12:03:13;22.10;99.90
46364;DHT22;32071;49.036;9.344;2023-10-08T12:05:44;22.00;99.90
46364;DHT22;32071;49.036;9.344;2023-10-08T12:08:17;22.10;99.90
46364;DHT22;32071;49.036;9.344;2023-10-08T12:10:44;22.20;99.90
46364;DHT22;32071;49.036;9.344;2023-10-08T12:13:12;22.30;99.90
46364;DHT22;32071;49.036;9.344;2023-10-08T12:15:38;22.30;99.90
46364;DHT22;32071;49.036;9.344;2023-10-08T12:18:04;22.40;99.90
46364;DHT22;32071;49.036;9.344;2023-10-08T12:20:49;22.50;99.90
46364;DHT22;32071;49.036;9.344;2023-10-08T12:23:15;22.60;99.90
46364;DHT22;32071;49.036;9.344;2023-10-08T12:25:57;22.60;99.90
46364;DHT22;32071;49.036;9.344;2023-10-08T12:28:23;22.70;99.90
46364;DHT22;32071;49.036;9.344;2023-10-08T12:30:49;22.60;99.90
46364;DHT22;32071;49.036;9.344;2023-10-08T12:33:20;22.70;99.90
46364;DHT22;32071;49.036;9.344;2023-10-08T12:35:48;22.70;99.90
46364;DHT22;32071;49.036;9.344;2023-10-08T12:38:14;22.70;99.90
46364;DHT22;32071;49.036;9.344;2023-10-08T12:40:43;22.80;99.90
46364;DHT22;32071;49.036;9.344;2023-10-08T12:43:19;22.80;99.90
46364;DHT22;32071;49.036;9.344;2023-10-08T12:45:51;22.80;99.90
46364;DHT22;32071;49.036;9.344;2023-10-08T12:48:26;22.80;99.90
46364;DHT22;32071;49.036;9.344;2023-10-08T12:50:52;22.80;99.90
46364;DHT22;32071;49.036;9.344;2023-10-08T12:53:26;23.00;99.90
46364;DHT22;32071;49.036;9.344;2023-10-08T12:56:03;22.90;99.90
46364;DHT22;32071;49.036;9.344;2023-10-08T12:58:33;22.90;99.90
46364;DHT22;32071;49.036;9.344;2023-10-08T13:01:06;22.90;99.90
46364;DHT22;32071;49.036;9.344;2023-10-08T13:03:37;22.90;99.90
46364;DHT22;32071;49.036;9.344;2023-10-08T13:06:10;23.00;99.90
46364;DHT22;32071;49.036;9.344;2023-10-08T13:08:51;23.00;99.90
46364;DHT22;32071;49.036;9.344;2023-10-08T13:11:24;23.00;99.90
46364;DHT22;32071;49.036;9.344;2023-10-08T13:13:54;23.00;99.80
46364;DHT22;32071;49.036;9.344;2023-10-08T13:16:27;22.90;99.90
46364;DHT22;32071;49.036;9.344;2023-10-08T13:19:03;23.00;99.90
46364;DHT22;32071;49.036;9.344;2023-10-08T13:21:29;23.10;99.90
46364;DHT22;32071;49.036;9.344;2023-10-08T13:23:55;23.00;99.90
46364;DHT22;32071;49.036;9.344;2023-10-08T13:26:26;23.10;99.90
46364;DHT22;32071;49.036;9.344;2023-10-08T13:28:56;23.10;99.90
46364;DHT22;32071;49.036;9.344;2023-10-08T13:31:23;23.10;99.90
46364;DHT22;32071;49.036;9.344;2023-10-08T13:33:50;23.10;99.90
46364;DHT22;32071;49.036;9.344;2023-10-08T13:36:18;23.10;99.90
46364;DHT22;32071;49.036;9.344;2023-10-08T13:38:44;23.10;99.90
46364;DHT22;32071;49.036;9.344;2023-10-08T13:41:12;23.10;99.90
46364;DHT22;32071;49.036;9.344;2023-10-08T13:43:41;23.10;99.90
46364;DHT22;32071;49.036;9.344;2023-10-08T13:46:11;23.10;99.90
46364;DHT22;32071;49.036;9.344;2023-10-08T13:48:41;23.10;99.90
46364;DHT22;32071;49.036;9.344;2023-10-08T13:51:08;23.10;99.90
46364;DHT22;32071;49.036;9.344;2023-10-08T13:53:41;23.20;99.90
46364;DHT22;32071;49.036;9.344;2023-10-08T13:56:10;23.20;99.90
46364;DHT22;32071;49.036;9.344;2023-10-08T13:58:37;23.30;99.90
46364;DHT22;32071;49.036;9.344;2023-10-08T14:01:07;23.40;99.90
46364;DHT22;32071;49.036;9.344;2023-10-08T14:03:50;23.40;99.90
46364;DHT22;32071;49.036;9.344;2023-10-08T14:06:21;23.40;99.90
46364;DHT22;32071;49.036;9.344;2023-10-08T14:08:47;23.40;99.90
46364;DHT22;32071;49.036;9.344;2023-10-08T14:11:22;23.40;99.90
46364;DHT22;32071;49.036;9.344;2023-10-08T14:13:55;23.40;99.90
46364;DHT22;32071;49.036;9.344;2023-10-08T14:16:21;23.40;99.90
46364;DHT22;32071;49.036;9.344;2023-10-08T14:18:54;23.40;99.90
46364;DHT22;32071;49.036;9.344;2023-10-08T14:21:20;23.40;99.90
46364;DHT22;32071;49.036;9.344;2023-10-08T14:23:52;23.40;99.90
46364;DHT22;32071;49.036;9.344;2023-10-08T14:26:18;23.30;99.90
46364;DHT22;32071;49.036;9.344;2023-10-08T14:28:47;23.30;99.90
46364;DHT22;32071;49.036;9.344;2023-10-08T14:31:23;23.30;99.90
46364;DHT22;32071;49.036;9.344;2023-10-08T14:33:50;23.30;99.90
46364;DHT22;32071;49.036;9.344;2023-10-08T14:36:25;23.40;99.90
46364;DHT22;32071;49.036;9.344;2023-10-08T14:39:09;23.30;99.90
46364;DHT22;32071;49.036;9.344;2023-10-08T14:41:53;23.40;99.90
46364;DHT22;32071;49.036;9.344;2023-10-08T14:44:37;23.50;99.90
46364;DHT22;32071;49.036;9.344;2023-10-08T14:47:06;23.50;99.70
46364;DHT22;32071;49.036;9.344;2023-10-08T14:49:32;23.40;99.70
46364;DHT22;32071;49.036;9.344;2023-10-08T14:51:59;23.40;99.50
46364;DHT22;32071;49.036;9.344;2023-10-08T14:54:24;23.20;99.50
46364;DHT22;32071;49.036;9.344;2023-10-08T14:56:51;23.20;99.60
46364;DHT22;32071;49.036;9.344;2023-10-08T14:59:17;23.10;99.90
46364;DHT22;32071;49.036;9.344;2023-10-08T15:01:44;23.10;99.90
46364;DHT22;32071;49.036;9.344;2023-10-08T15:04:10;23.00;99.90
46364;DHT22;32071;49.036;9.344;2023-10-08T15:06:37;23.00;99.90
46364;DHT22;32071;49.036;9.344;2023-10-08T15:09:02;22.90;99.90
46364;DHT22;32071;49.036;9.344;2023-10-08T15:11:28;22.90;99.90
46364;DHT22;32071;49.036;9.344;2023-10-08T15:13:59;22.90;99.90
46364;DHT22;32071;49.036;9.344;2023-10-08T15:16:24;22.80;99.90
46364;DHT22;32071;49.036;9.344;2023-10-08T15:18:52;22.80;99.90
46364;DHT22;32071;49.036;9.344;2023-10-08T15:21:19;22.70;99.90
46364;DHT22;32071;49.036;9.344;2023-10-08T15:23:45;22.60;99.90
46364;DHT22;32071;49.036;9.344;2023-10-08T15:26:11;22.50;99.90
46364;DHT22;32071;49.036;9.344;2023-10-08T15:28:38;22.40;99.90
46364;DHT22;32071;49.036;9.344;2023-10-08T15:31:04;22.30;99.90
46364;DHT22;32071;49.036;9.344;2023-10-08T15:33:30;22.00;99.90
46364;DHT22;32071;49.036;9.344;2023-10-08T15:35:55;21.60;99.90
46364;DHT22;32071;49.036;9.344;2023-10-08T15:38:22;21.30;99.90
46364;DHT22;32071;49.036;9.344;2023-10-08T15:40:48;21.00;99.90
46364;DHT22;32071;49.036;9.344;2023-10-08T15:43:14;20.70;99.90
46364;DHT22;32071;49.036;9.344;2023-10-08T15:45:40;20.60;99.90
46364;DHT22;32071;49.036;9.344;2023-10-08T15:48:07;20.60;99.90
46364;DHT22;32071;49.036;9.344;2023-10-08T15:50:33;20.60;99.90
46364;DHT22;32071;49.036;9.344;2023-10-08T15:52:59;20.50;99.90
46364;DHT22;32071;49.036;9.344;2023-10-08T15:55:25;20.50;99.90
46364;DHT22;32071;49.036;9.344;2023-10-08T15:57:51;20.40;99.90
46364;DHT22;32071;49.036;9.344;2023-10-08T16:00:17;20.40;99.90
46364;DHT22;32071;49.036;9.344;2023-10-08T16:02:43;20.50;99.90
46364;DHT22;32071;49.036;9.344;2023-10-08T16:05:11;20.50;99.90
46364;DHT22;32071;49.036;9.344;2023-10-08T16:07:37;20.50;99.90